createdAt,value
2023-02-26T00:00:21.331Z,3.10
2023-02-26T00:02:49.368Z,3.67
2023-02-26T00:05:17.633Z,3.20
2023-02-26T00:07:45.512Z,3.63
2023-02-26T00:10:16.200Z,3.60
2023-02-26T00:12:44.903Z,3.58
2023-02-26T00:15:15.075Z,3.75
2023-02-26T00:17:50.056Z,4.20
2023-02-26T00:20:19.110Z,4.53
2023-02-26T00:22:50.435Z,4.70
2023-02-26T00:25:19.674Z,5.00
2023-02-26T00:27:47.876Z,4.60
2023-02-26T00:30:16.192Z,5.22
2023-02-26T00:32:44.728Z,5.07
2023-02-26T00:35:15.876Z,5.25
2023-02-26T00:37:58.951Z,5.43
2023-02-26T00:40:35.879Z,4.85
2023-02-26T00:43:04.650Z,5.07
2023-02-26T00:45:35.582Z,4.90
2023-02-26T00:48:32.131Z,5.43
2023-02-26T00:51:07.157Z,4.88
2023-02-26T00:53:42.049Z,5.10
2023-02-26T00:56:11.118Z,5.40
2023-02-26T00:58:38.896Z,5.50
2023-02-26T01:01:06.748Z,5.78
2023-02-26T01:03:35.094Z,5.07
2023-02-26T01:06:03.226Z,6.32
2023-02-26T01:08:38.604Z,4.80
2023-02-26T01:13:36.081Z,5.55
2023-02-26T01:16:10.342Z,5.60
2023-02-26T01:18:43.910Z,4.97
2023-02-26T01:21:17.804Z,5.10
2023-02-26T01:23:51.322Z,5.50
2023-02-26T01:26:24.432Z,5.32
2023-02-26T01:28:54.433Z,4.45
2023-02-26T01:31:35.820Z,4.82
2023-02-26T01:34:10.964Z,3.88
2023-02-26T01:36:44.940Z,5.03
2023-02-26T01:39:19.407Z,4.35
2023-02-26T01:41:50.627Z,4.35
2023-02-26T01:44:27.240Z,4.28
2023-02-26T01:47:07.286Z,4.70
2023-02-26T01:49:35.798Z,4.22
2023-02-26T01:52:05.006Z,4.28
2023-02-26T01:54:34.926Z,4.20
2023-02-26T01:57:06.921Z,4.38
2023-02-26T01:59:39.543Z,4.07
2023-02-26T02:02:09.880Z,4.25
2023-02-26T02:04:38.764Z,4.80
2023-02-26T02:07:07.589Z,4.57
2023-02-26T02:09:38.863Z,4.40
2023-02-26T02:12:22.471Z,4.05
2023-02-26T02:15:03.561Z,4.72
2023-02-26T02:17:42.434Z,4.38
2023-02-26T02:20:45.952Z,4.85
2023-02-26T02:23:20.184Z,4.82
2023-02-26T02:26:34.032Z,5.00
2023-02-26T02:29:23.743Z,4.78
2023-02-26T02:31:56.929Z,4.70
2023-02-26T02:34:30.971Z,4.03
2023-02-26T02:37:02.504Z,3.97
2023-02-26T02:39:33.493Z,4.38
2023-02-26T02:42:07.190Z,3.70
2023-02-26T02:44:39.854Z,3.58
2023-02-26T02:47:12.133Z,3.30
2023-02-26T02:49:46.419Z,3.42
2023-02-26T02:52:19.513Z,3.30
2023-02-26T02:54:51.793Z,3.65
2023-02-26T02:57:24.242Z,2.85
2023-02-26T02:59:58.074Z,3.03
2023-02-26T03:02:34.083Z,3.20
2023-02-26T03:05:01.855Z,3.40
2023-02-26T03:07:32.047Z,3.83
2023-02-26T03:09:59.940Z,3.40
2023-02-26T03:12:28.527Z,3.47
2023-02-26T03:14:56.347Z,4.00
2023-02-26T03:17:32.974Z,3.45
2023-02-26T03:20:10.133Z,3.90
2023-02-26T03:22:46.637Z,3.70
2023-02-26T03:25:19.202Z,3.80
2023-02-26T03:27:54.180Z,4.03
2023-02-26T03:30:30.263Z,3.78
2023-02-26T03:33:04.922Z,3.80
2023-02-26T03:35:38.884Z,4.25
2023-02-26T03:38:12.656Z,3.88
2023-02-26T03:40:44.473Z,3.50
2023-02-26T03:43:18.071Z,2.78
2023-02-26T03:45:50.365Z,3.67
2023-02-26T03:48:24.176Z,3.20
2023-02-26T03:50:59.127Z,3.08
2023-02-26T03:53:31.606Z,3.17
2023-02-26T03:56:05.144Z,3.58
2023-02-26T03:58:33.160Z,3.15
2023-02-26T04:01:04.734Z,2.92
2023-02-26T04:03:39.614Z,3.05
2023-02-26T04:06:08.256Z,3.28
2023-02-26T04:08:36.564Z,2.97
2023-02-26T04:11:09.066Z,3.40
2023-02-26T04:13:36.805Z,3.60
2023-02-26T04:16:05.673Z,3.35
2023-02-26T04:18:34.978Z,3.58
2023-02-26T04:21:02.718Z,3.35
2023-02-26T04:23:30.503Z,3.50
2023-02-26T04:25:58.225Z,3.53
2023-02-26T04:28:34.023Z,3.55
2023-02-26T04:31:02.091Z,3.53
2023-02-26T04:33:29.870Z,3.20
2023-02-26T04:35:58.983Z,3.30
2023-02-26T04:38:26.744Z,4.00
2023-02-26T04:40:54.519Z,3.78
2023-02-26T04:43:25.030Z,3.08
2023-02-26T04:45:52.815Z,3.10
2023-02-26T04:48:20.858Z,3.67
2023-02-26T04:50:51.766Z,3.35
2023-02-26T04:53:20.880Z,3.45
2023-02-26T04:55:52.228Z,3.50
2023-02-26T04:58:20.553Z,3.65
2023-02-26T05:00:52.242Z,3.65
2023-02-26T05:03:20.018Z,3.45
2023-02-26T05:05:50.550Z,3.85
2023-02-26T05:08:18.293Z,3.60
2023-02-26T05:10:47.862Z,3.63
2023-02-26T05:13:15.663Z,3.55
2023-02-26T05:15:43.551Z,3.20
2023-02-26T05:18:11.338Z,3.75
2023-02-26T05:20:39.339Z,3.50
2023-02-26T05:23:07.387Z,3.60
2023-02-26T05:25:35.100Z,3.25
2023-02-26T05:28:07.019Z,3.17
2023-02-26T05:30:34.764Z,3.28
2023-02-26T05:33:02.492Z,3.50
2023-02-26T05:35:30.264Z,3.25
2023-02-26T05:38:00.847Z,3.35
2023-02-26T05:40:31.360Z,3.00
2023-02-26T05:43:00.018Z,3.13
2023-02-26T05:45:29.085Z,3.10
2023-02-26T05:47:57.393Z,3.67
2023-02-26T05:50:25.064Z,3.00
2023-02-26T05:52:52.800Z,3.30
2023-02-26T05:55:21.038Z,3.00
2023-02-26T05:57:50.419Z,3.17
2023-02-26T06:00:21.609Z,3.05
2023-02-26T06:02:50.736Z,3.15
2023-02-26T06:05:18.809Z,3.30
2023-02-26T06:07:49.548Z,3.58
2023-02-26T06:10:20.051Z,3.20
2023-02-26T06:12:51.126Z,3.45
2023-02-26T06:15:22.061Z,3.80
2023-02-26T06:17:54.236Z,3.58
2023-02-26T06:20:22.129Z,4.13
2023-02-26T06:22:49.823Z,3.50
2023-02-26T06:25:20.128Z,3.47
2023-02-26T06:27:47.827Z,3.50
2023-02-26T06:30:15.731Z,3.58
2023-02-26T06:32:44.504Z,3.38
2023-02-26T06:35:15.436Z,3.00
2023-02-26T06:37:43.150Z,3.03
2023-02-26T06:40:11.996Z,3.25
2023-02-26T06:42:39.701Z,3.45
2023-02-26T06:45:08.259Z,3.85
2023-02-26T06:47:35.983Z,3.47
2023-02-26T06:50:04.127Z,3.20
2023-02-26T06:52:33.591Z,3.58
2023-02-26T06:55:01.323Z,3.60
2023-02-26T06:57:29.062Z,3.50
2023-02-26T06:59:56.786Z,3.80
2023-02-26T07:02:25.159Z,3.47
2023-02-26T07:04:53.271Z,3.10
2023-02-26T07:07:22.880Z,3.03
2023-02-26T07:09:52.139Z,3.50
2023-02-26T07:12:19.923Z,2.90
2023-02-26T07:14:47.622Z,3.72
2023-02-26T07:17:20.494Z,3.70
2023-02-26T07:19:49.150Z,3.22
2023-02-26T07:22:17.762Z,3.15
2023-02-26T07:24:48.229Z,3.53
2023-02-26T07:27:17.381Z,3.40
2023-02-26T07:29:45.140Z,3.75
2023-02-26T07:32:13.009Z,3.50
2023-02-26T07:34:40.773Z,3.80
2023-02-26T07:37:08.499Z,3.90
2023-02-26T07:39:36.214Z,3.70
2023-02-26T07:42:03.987Z,3.80
2023-02-26T07:44:33.094Z,3.30
2023-02-26T07:47:01.004Z,3.85
2023-02-26T07:49:28.807Z,3.47
2023-02-26T07:51:59.317Z,3.83
2023-02-26T07:54:27.249Z,3.78
2023-02-26T07:56:55.329Z,3.40
2023-02-26T07:59:23.076Z,3.60
2023-02-26T08:01:53.161Z,3.60
2023-02-26T08:04:20.956Z,3.78
2023-02-26T08:06:48.698Z,3.53
2023-02-26T08:09:16.733Z,3.60
2023-02-26T08:11:44.470Z,4.15
2023-02-26T08:14:12.889Z,3.92
2023-02-26T08:16:40.854Z,4.03
2023-02-26T08:19:10.215Z,3.97
2023-02-26T08:21:38.437Z,3.97
2023-02-26T08:24:06.728Z,4.30
2023-02-26T08:26:37.119Z,3.65
2023-02-26T08:29:06.291Z,3.60
2023-02-26T08:31:35.534Z,3.80
2023-02-26T08:34:04.105Z,4.22
2023-02-26T08:36:33.891Z,3.67
2023-02-26T08:39:01.644Z,4.28
2023-02-26T08:41:32.340Z,3.80
2023-02-26T08:44:00.798Z,4.32
2023-02-26T08:46:28.994Z,3.47
2023-02-26T08:48:57.057Z,3.50
2023-02-26T08:51:25.239Z,4.00
2023-02-26T08:53:54.462Z,3.72
2023-02-26T08:56:22.886Z,3.53
2023-02-26T08:58:50.692Z,4.20
2023-02-26T09:01:18.388Z,3.90
2023-02-26T09:03:46.090Z,4.90
2023-02-26T09:06:13.803Z,4.10
2023-02-26T09:08:41.523Z,4.43
2023-02-26T09:11:11.233Z,3.72
2023-02-26T09:13:39.337Z,4.20
2023-02-26T09:16:08.101Z,4.63
2023-02-26T09:18:35.871Z,4.78
2023-02-26T09:21:06.641Z,4.95
2023-02-26T09:23:34.366Z,4.65
2023-02-26T09:26:02.130Z,4.47
2023-02-26T09:28:31.249Z,4.07
2023-02-26T09:30:59.027Z,4.32
2023-02-26T09:33:26.869Z,4.18
2023-02-26T09:35:55.047Z,4.25
2023-02-26T09:38:22.748Z,4.53
2023-02-26T09:40:55.618Z,4.50
2023-02-26T09:43:43.114Z,4.60
2023-02-26T09:46:20.126Z,5.43
2023-02-26T09:48:51.079Z,4.88
2023-02-26T09:51:22.111Z,4.90
2023-02-26T09:53:52.076Z,4.50
2023-02-26T09:56:24.872Z,4.28
2023-02-26T09:58:55.582Z,4.18
2023-02-26T10:01:30.454Z,4.50
2023-02-26T10:04:11.324Z,3.85
2023-02-26T10:06:48.532Z,5.45
2023-02-26T10:09:34.446Z,4.57
2023-02-26T10:14:39.391Z,5.35
2023-02-26T10:19:42.029Z,4.80
2023-02-26T10:22:18.519Z,3.90
2023-02-26T10:24:52.344Z,4.45
2023-02-26T10:27:26.672Z,4.97
2023-02-26T10:30:01.248Z,4.95
2023-02-26T10:32:36.789Z,4.93
2023-02-26T10:35:09.138Z,5.35
2023-02-26T10:37:48.487Z,5.00
2023-02-26T10:40:20.469Z,4.70
2023-02-26T10:42:51.852Z,5.60
2023-02-26T10:45:38.179Z,4.65
2023-02-26T10:48:27.139Z,4.13
2023-02-26T10:50:58.753Z,4.30
2023-02-26T10:53:29.618Z,5.97
2023-02-26T10:56:03.123Z,4.30
2023-02-26T10:58:32.198Z,5.55
2023-02-26T11:01:01.386Z,5.10
2023-02-26T11:03:34.631Z,4.78
2023-02-26T11:06:03.710Z,4.70
2023-02-26T11:08:37.746Z,5.22
2023-02-26T11:11:06.476Z,5.03
2023-02-26T11:13:37.564Z,6.30
2023-02-26T11:16:12.543Z,5.20
2023-02-26T11:18:42.864Z,4.82
2023-02-26T11:21:17.814Z,5.30
2023-02-26T11:23:48.298Z,4.57
2023-02-26T11:26:18.996Z,4.50
2023-02-26T11:28:49.662Z,5.05
2023-02-26T11:31:21.451Z,5.20
2023-02-26T11:33:51.632Z,4.47
2023-02-26T11:36:24.548Z,4.32
2023-02-26T11:38:56.332Z,4.55
2023-02-26T11:41:25.412Z,4.68
2023-02-26T11:44:02.240Z,4.80
2023-02-26T11:46:32.427Z,4.47
2023-02-26T11:49:02.266Z,4.60
2023-02-26T11:51:31.219Z,4.75
2023-02-26T11:54:01.550Z,4.72
2023-02-26T11:56:34.159Z,5.45
2023-02-26T11:59:08.608Z,5.75
2023-02-26T12:01:38.638Z,7.35
2023-02-26T12:04:06.409Z,6.53
2023-02-26T12:06:34.196Z,5.25
2023-02-26T12:09:02.314Z,5.13
2023-02-26T12:11:55.302Z,4.55
2023-02-26T12:15:02.842Z,4.65
2023-02-26T12:17:49.335Z,4.82
2023-02-26T12:20:23.908Z,5.90
2023-02-26T12:22:57.546Z,3.90
2023-02-26T12:25:55.252Z,3.50
2023-02-26T12:28:58.664Z,3.40
2023-02-26T12:31:50.438Z,4.13
2023-02-26T12:34:35.355Z,4.15
2023-02-26T12:37:18.822Z,4.40
2023-02-26T12:39:58.254Z,3.63
2023-02-26T12:42:39.570Z,3.95
2023-02-26T12:45:27.131Z,3.58
2023-02-26T12:48:18.515Z,3.63
2023-02-26T12:51:00.674Z,3.30
2023-02-26T12:54:03.075Z,3.20
2023-02-26T12:57:00.137Z,3.20
2023-02-26T12:59:56.906Z,3.38
2023-02-26T13:03:11.015Z,3.67
2023-02-26T13:05:55.270Z,3.42
2023-02-26T13:08:33.277Z,3.08
2023-02-26T13:11:13.141Z,3.38
2023-02-26T13:14:01.532Z,3.30
2023-02-26T13:16:43.463Z,3.15
2023-02-26T13:19:21.718Z,2.80
2023-02-26T13:21:52.801Z,2.90
2023-02-26T13:24:26.135Z,3.08
2023-02-26T13:26:55.524Z,2.97
2023-02-26T13:29:26.576Z,2.50
2023-02-26T13:32:00.423Z,2.85
2023-02-26T13:34:40.703Z,2.90
2023-02-26T13:37:25.839Z,3.08
2023-02-26T13:40:13.768Z,3.15
2023-02-26T13:42:48.311Z,2.90
2023-02-26T13:45:39.846Z,5.05
2023-02-26T13:48:21.021Z,3.33
2023-02-26T13:50:58.532Z,3.05
2023-02-26T13:53:47.363Z,2.90
2023-02-26T13:56:18.732Z,2.92
2023-02-26T13:58:52.910Z,2.92
2023-02-26T14:01:27.968Z,3.35
2023-02-26T14:04:23.252Z,3.35
2023-02-26T14:06:53.339Z,3.60
2023-02-26T14:09:51.774Z,3.50
2023-02-26T14:12:36.253Z,3.88
2023-02-26T14:15:27.796Z,4.00
2023-02-26T14:18:03.129Z,3.67
2023-02-26T14:20:32.637Z,3.60
2023-02-26T14:23:22.530Z,2.47
2023-02-26T14:25:53.338Z,2.50
2023-02-26T14:28:45.523Z,2.83
2023-02-26T14:31:21.265Z,3.25
2023-02-26T14:34:00.914Z,2.83
2023-02-26T14:36:35.599Z,2.88
2023-02-26T14:39:09.295Z,3.10
2023-02-26T14:41:41.382Z,2.92
2023-02-26T14:44:16.968Z,2.80
2023-02-26T14:49:28.970Z,3.17
2023-02-26T14:52:25.962Z,4.35
2023-02-26T14:55:20.022Z,3.80
2023-02-26T14:57:58.254Z,3.35
2023-02-26T15:00:39.223Z,4.15
2023-02-26T15:03:41.006Z,3.15
2023-02-26T15:06:26.598Z,3.75
2023-02-26T15:09:08.581Z,3.40
2023-02-26T15:11:51.715Z,3.80
2023-02-26T15:14:39.474Z,3.67
2023-02-26T15:17:24.191Z,2.95
2023-02-26T15:20:05.423Z,4.03
2023-02-26T15:22:46.168Z,3.40
2023-02-26T15:25:24.843Z,4.00
2023-02-26T15:27:52.778Z,3.72
2023-02-26T15:30:20.943Z,3.35
2023-02-26T15:32:50.104Z,3.33
2023-02-26T15:35:21.072Z,2.90
2023-02-26T15:37:50.852Z,3.28
2023-02-26T15:40:19.950Z,3.42
2023-02-26T15:42:52.140Z,3.83
2023-02-26T15:45:25.321Z,4.68
2023-02-26T15:47:59.902Z,4.03
2023-02-26T15:50:32.318Z,4.30
2023-02-26T15:53:03.239Z,4.07
2023-02-26T15:55:35.851Z,4.70
2023-02-26T15:58:05.034Z,4.00
2023-02-26T16:00:34.161Z,4.25
2023-02-26T16:03:04.553Z,4.25
2023-02-26T16:05:32.326Z,4.30
2023-02-26T16:08:03.181Z,5.28
2023-02-26T16:10:38.196Z,7.18
2023-02-26T16:13:08.671Z,6.97
2023-02-26T16:15:39.630Z,6.38
2023-02-26T16:18:13.496Z,5.40
2023-02-26T16:20:43.843Z,4.72
2023-02-26T16:23:15.241Z,4.85
2023-02-26T16:25:51.277Z,4.45
2023-02-26T16:28:22.227Z,5.13
2023-02-26T16:30:55.035Z,5.30
2023-02-26T16:33:27.691Z,4.40
2023-02-26T16:35:58.622Z,4.97
2023-02-26T16:38:28.755Z,4.80
2023-02-26T16:41:00.638Z,3.95
2023-02-26T16:43:36.456Z,4.10
2023-02-26T16:46:06.435Z,3.75
2023-02-26T16:48:40.551Z,4.57
2023-02-26T16:51:12.528Z,4.55
2023-02-26T16:53:45.839Z,4.82
2023-02-26T16:56:16.893Z,3.95
2023-02-26T16:58:47.615Z,4.10
2023-02-26T17:01:18.791Z,3.85
2023-02-26T17:03:50.951Z,3.88
2023-02-26T17:06:21.852Z,3.95
2023-02-26T17:08:52.758Z,3.63
2023-02-26T17:11:25.127Z,4.82
2023-02-26T17:14:10.179Z,3.85
2023-02-26T17:16:38.197Z,3.37
2023-02-26T17:19:09.459Z,3.78
2023-02-26T17:21:42.017Z,4.13
2023-02-26T17:24:15.318Z,4.03
2023-02-26T17:26:43.268Z,3.97
2023-02-26T17:29:19.210Z,4.20
2023-02-26T17:31:47.488Z,4.10
2023-02-26T17:34:17.228Z,4.70
2023-02-26T17:36:44.988Z,4.30
2023-02-26T17:39:14.176Z,4.13
2023-02-26T17:41:44.802Z,5.75
2023-02-26T17:44:12.945Z,4.03
2023-02-26T17:46:40.791Z,5.28
2023-02-26T17:49:10.725Z,4.03
2023-02-26T17:51:39.945Z,4.03
2023-02-26T17:54:08.344Z,3.55
2023-02-26T17:56:37.105Z,3.58
2023-02-26T17:59:07.147Z,4.32
2023-02-26T18:01:34.910Z,3.47
2023-02-26T18:04:03.601Z,3.47
2023-02-26T18:06:35.364Z,5.55
2023-02-26T18:09:05.985Z,3.22
2023-02-26T18:11:34.355Z,2.80
2023-02-26T18:14:03.542Z,3.88
2023-02-26T18:16:35.930Z,3.22
2023-02-26T18:19:03.707Z,3.80
2023-02-26T18:21:31.489Z,3.20
2023-02-26T18:24:01.067Z,3.40
2023-02-26T18:26:33.379Z,3.28
2023-02-26T18:29:01.141Z,3.33
2023-02-26T18:31:34.625Z,3.60
2023-02-26T18:34:04.389Z,4.65
2023-02-26T18:36:37.645Z,4.55
2023-02-26T18:39:07.342Z,3.80
2023-02-26T18:41:36.497Z,3.83
2023-02-26T18:44:04.424Z,4.20
2023-02-26T18:46:34.849Z,4.47
2023-02-26T18:49:02.696Z,4.20
2023-02-26T18:51:30.578Z,4.47
2023-02-26T18:53:58.328Z,4.80
2023-02-26T18:56:26.160Z,4.13
2023-02-26T18:58:55.348Z,4.75
2023-02-26T19:01:25.299Z,4.57
2023-02-26T19:03:55.698Z,5.00
2023-02-26T19:06:23.999Z,4.40
2023-02-26T19:08:53.160Z,4.45
2023-02-26T19:11:20.932Z,4.85
2023-02-26T19:13:50.351Z,5.70
2023-02-26T19:16:23.395Z,5.03
2023-02-26T19:18:51.534Z,5.55
2023-02-26T19:21:19.311Z,5.53
2023-02-26T19:23:48.420Z,5.80
2023-02-26T19:26:16.180Z,5.40
2023-02-26T19:28:43.927Z,5.70
2023-02-26T19:31:11.903Z,5.53
2023-02-26T19:33:41.168Z,5.85
2023-02-26T19:36:09.735Z,5.53
2023-02-26T19:38:37.555Z,5.50
2023-02-26T19:41:05.679Z,5.07
2023-02-26T19:43:33.455Z,5.55
2023-02-26T19:46:03.921Z,5.63
2023-02-26T19:48:32.065Z,5.55
2023-02-26T19:51:03.046Z,5.20
2023-02-26T19:53:33.819Z,5.47
2023-02-26T19:56:01.809Z,5.13
2023-02-26T19:58:30.638Z,5.75
2023-02-26T20:00:58.615Z,5.38
2023-02-26T20:03:26.852Z,5.28
2023-02-26T20:05:55.163Z,6.10
2023-02-26T20:08:26.899Z,5.50
2023-02-26T20:10:56.695Z,5.05
2023-02-26T20:13:29.725Z,5.82
2023-02-26T20:15:58.679Z,5.93
2023-02-26T20:18:27.495Z,5.22
2023-02-26T20:20:55.625Z,5.93
2023-02-26T20:23:24.828Z,5.85
2023-02-26T20:25:55.691Z,5.22
2023-02-26T20:28:23.843Z,6.13
2023-02-26T20:30:52.311Z,5.85
2023-02-26T20:33:21.092Z,5.70
2023-02-26T20:35:49.214Z,5.05
2023-02-26T20:38:19.321Z,5.80
2023-02-26T20:40:49.703Z,5.90
2023-02-26T20:43:20.342Z,5.85
2023-02-26T20:45:49.442Z,6.57
2023-02-26T20:48:20.100Z,5.88
2023-02-26T20:50:48.010Z,5.88
2023-02-26T20:53:15.885Z,6.25
2023-02-26T20:55:43.823Z,6.18
2023-02-26T20:58:13.026Z,6.10
2023-02-26T21:00:40.928Z,6.40
2023-02-26T21:03:09.118Z,6.32
2023-02-26T21:05:38.606Z,5.95
2023-02-26T21:08:06.453Z,6.82
2023-02-26T21:10:34.677Z,6.03
2023-02-26T21:13:02.512Z,7.22
2023-02-26T21:15:31.672Z,6.40
2023-02-26T21:17:59.629Z,6.85
2023-02-26T21:20:30.258Z,6.55
2023-02-26T21:22:58.824Z,6.03
2023-02-26T21:25:27.589Z,6.60
2023-02-26T21:27:55.486Z,5.90
2023-02-26T21:30:26.179Z,6.20
2023-02-26T21:32:55.653Z,6.47
2023-02-26T21:35:23.517Z,6.57
2023-02-26T21:37:51.774Z,6.57
2023-02-26T21:40:19.890Z,7.22
2023-02-26T21:42:47.621Z,7.55
2023-02-26T21:45:15.626Z,7.50
2023-02-26T21:47:43.346Z,7.15
2023-02-26T21:50:13.316Z,6.65
2023-02-26T21:52:41.241Z,6.88
2023-02-26T21:55:09.874Z,6.80
2023-02-26T21:57:37.645Z,6.25
2023-02-26T22:00:10.131Z,7.05
2023-02-26T22:02:38.477Z,6.82
2023-02-26T22:05:06.483Z,6.57
2023-02-26T22:07:35.824Z,6.72
2023-02-26T22:10:03.621Z,6.18
2023-02-26T22:12:33.687Z,6.95
2023-02-26T22:15:01.403Z,6.40
2023-02-26T22:17:30.811Z,6.47
2023-02-26T22:19:58.687Z,6.50
2023-02-26T22:22:31.544Z,6.05
2023-02-26T22:25:00.704Z,6.68
2023-02-26T22:27:28.465Z,6.85
2023-02-26T22:29:59.254Z,6.38
2023-02-26T22:32:27.084Z,6.50
2023-02-26T22:34:59.011Z,5.65
2023-02-26T22:37:26.790Z,5.85
2023-02-26T22:39:54.579Z,6.88
2023-02-26T22:42:24.292Z,6.35
2023-02-26T22:44:52.240Z,6.25
2023-02-26T22:47:21.669Z,6.80
2023-02-26T22:49:51.248Z,6.32
2023-02-26T22:52:18.967Z,6.53
2023-02-26T23:00:42.274Z,7.15
2023-02-26T23:03:14.672Z,6.90
2023-02-26T23:05:42.542Z,6.82
2023-02-26T23:08:10.533Z,7.13
2023-02-26T23:10:38.333Z,7.07
2023-02-26T23:13:06.084Z,6.60
2023-02-26T23:15:33.891Z,6.97
2023-02-26T23:18:04.979Z,6.75
2023-02-26T23:20:35.853Z,6.28
2023-02-26T23:23:04.483Z,6.35
2023-02-26T23:25:32.311Z,7.05
2023-02-26T23:28:00.069Z,6.43
2023-02-26T23:30:28.308Z,6.40
2023-02-26T23:32:56.412Z,6.03
2023-02-26T23:35:25.516Z,5.93
2023-02-26T23:37:53.478Z,5.95
2023-02-26T23:40:21.286Z,6.05
2023-02-26T23:42:49.447Z,5.90
2023-02-26T23:45:18.400Z,5.95
2023-02-26T23:47:46.627Z,5.60
2023-02-26T23:50:14.421Z,6.30
2023-02-26T23:52:43.485Z,5.15
2023-02-26T23:55:12.225Z,5.63
2023-02-26T23:57:40.165Z,5.90
